Time;durP1;ratioP1;P1;durP2;ratioP2;P2;SDS_P1;SDS_P2;PMS_P1;PMS_P2;Temp;Humidity;BMP_temperature;BMP_pressure;BME280_temperature;BME280_humidity;BME280_pressure;Samples;Min_cycle;Max_cycle;Signal;HPM_P1;HPM_P2
2021/06/10 00:00:24;;;;;;;16.20;15.00;;;;;;;14.82;100.00;99210.88;2104609;28;20304;-82
2021/06/10 00:01:25;;;;;;;16.83;15.20;;;;;;;14.87;100.00;99214.19;2104509;28;20624;-82
2021/06/10 00:02:26;;;;;;;17.13;15.80;;;;;;;14.88;100.00;99217.66;2105331;28;20327;-82
2021/06/10 00:03:27;;;;;;;16.08;14.93;;;;;;;14.83;100.00;99221.28;2096588;28;20237;-82
2021/06/10 00:04:28;;;;;;;15.43;14.30;;;;;;;14.78;100.00;99215.31;2096993;28;20321;-82
2021/06/10 00:05:29;;;;;;;16.38;14.98;;;;;;;14.76;100.00;99215.63;2104832;28;20363;-82
2021/06/10 00:06:30;;;;;;;16.90;15.33;;;;;;;14.67;100.00;99207.59;2106258;28;20232;-82
2021/06/10 00:07:31;;;;;;;17.80;14.23;;;;;;;14.64;100.00;99207.44;2106359;28;20245;-81
2021/06/10 00:08:34;;;;;;;16.60;15.30;;;;;;;14.60;100.00;99211.88;2105577;28;20216;-82
2021/06/10 00:09:35;;;;;;;16.92;15.55;;;;;;;14.53;100.00;99212.38;2105700;28;20223;-82
2021/06/10 00:10:43;;;;;;;16.55;15.10;;;;;;;14.56;100.00;99219.78;2104621;28;20667;-82
2021/06/10 00:11:44;;;;;;;16.45;15.15;;;;;;;14.52;100.00;99210.78;2104861;28;20229;-81
2021/06/10 00:12:45;;;;;;;16.83;15.53;;;;;;;14.46;100.00;99209.38;2105397;28;20217;-82
2021/06/10 00:13:46;;;;;;;17.08;15.75;;;;;;;14.42;100.00;99208.38;2105575;28;20618;-82
2021/06/10 00:14:48;;;;;;;17.60;15.90;;;;;;;14.39;100.00;99206.34;2104884;28;21118;-82
2021/06/10 00:15:50;;;;;;;18.23;16.70;;;;;;;14.37;100.00;99205.88;2104917;28;20639;-82
2021/06/10 00:16:52;;;;;;;18.17;16.65;;;;;;;14.26;100.00;99201.94;2104714;28;20275;-82
2021/06/10 00:17:53;;;;;;;19.00;17.13;;;;;;;14.33;100.00;99221.00;2105317;28;20267;-81
2021/06/10 00:18:56;;;;;;;19.03;17.23;;;;;;;14.29;100.00;99214.72;2104961;28;20247;-81
2021/06/10 00:19:58;;;;;;;18.38;16.88;;;;;;;14.25;100.00;99221.84;2104806;28;20232;-82
2021/06/10 00:21:00;;;;;;;18.95;17.15;;;;;;;14.20;100.00;99216.59;2106278;28;20225;-82
2021/06/10 00:22:01;;;;;;;19.15;17.20;;;;;;;14.22;100.00;99217.06;2106057;28;20225;-82
2021/06/10 00:23:03;;;;;;;19.23;17.40;;;;;;;14.17;100.00;99222.63;2105170;28;20243;-81
2021/06/10 00:24:05;;;;;;;19.10;17.27;;;;;;;14.14;100.00;99215.97;2105607;28;20225;-82
2021/06/10 00:25:08;;;;;;;19.08;17.23;;;;;;;14.07;100.00;99212.97;2104556;28;20218;-82
2021/06/10 00:26:08;;;;;;;20.00;17.92;;;;;;;14.06;100.00;99220.22;2105016;28;20228;-81
2021/06/10 00:27:10;;;;;;;20.77;18.20;;;;;;;14.04;100.00;99214.38;2098581;28;20305;-81
2021/06/10 00:28:10;;;;;;;20.60;18.60;;;;;;;14.02;100.00;99213.91;2097193;28;20611;-81
2021/06/10 00:29:12;;;;;;;22.23;19.93;;;;;;;13.97;100.00;99213.28;2113064;28;20356;-84
2021/06/10 00:30:16;;;;;;;21.05;18.92;;;;;;;14.00;100.00;99218.81;2104695;28;20225;-83
2021/06/10 00:31:18;;;;;;;21.95;19.77;;;;;;;14.01;100.00;99220.38;2104666;28;20623;-81
2021/06/10 00:32:19;;;;;;;22.25;18.17;;;;;;;13.94;100.00;99214.69;2105456;28;20567;-82
2021/06/10 00:33:20;;;;;;;21.20;19.03;;;;;;;13.98;100.00;99209.47;2105138;28;20296;-81
2021/06/10 00:34:21;;;;;;;22.40;20.08;;;;;;;13.89;100.00;99201.44;2093941;28;20222;-82
2021/06/10 00:35:24;;;;;;;21.83;19.63;;;;;;;13.91;100.00;99209.19;2104596;28;20227;-83
2021/06/10 00:36:24;;;;;;;20.80;18.70;;;;;;;13.85;100.00;99203.97;2103938;28;20225;-80
2021/06/10 00:37:26;;;;;;;21.17;18.97;;;;;;;13.75;100.00;99190.06;2104879;28;20229;-84
2021/06/10 00:38:27;;;;;;;21.48;19.38;;;;;;;13.82;100.00;99207.28;2104964;28;20221;-83
2021/06/10 00:39:28;;;;;;;22.83;18.77;;;;;;;13.74;100.00;99193.84;2105179;28;20259;-81
2021/06/10 00:40:31;;;;;;;22.17;18.98;;;;;;;13.79;100.00;99204.41;2105455;28;20241;-84
2021/06/10 00:41:34;;;;;;;21.23;19.10;;;;;;;13.78;100.00;99205.53;2104930;28;20676;-83
2021/06/10 00:42:35;;;;;;;21.60;19.48;;;;;;;13.79;100.00;99201.72;2104990;28;20232;-83
2021/06/10 00:43:36;;;;;;;22.93;20.07;;;;;;;13.75;100.00;99201.59;2105409;28;20247;-84
2021/06/10 00:44:37;;;;;;;25.55;20.23;;;;;;;13.62;100.00;99188.28;2105152;28;20296;-84
2021/06/10 00:45:38;;;;;;;22.50;20.13;;;;;;;13.68;100.00;99195.88;2104312;28;20217;-83
2021/06/10 00:46:41;;;;;;;24.35;20.27;;;;;;;13.64;100.00;99197.63;2105828;28;20205;-83
2021/06/10 00:47:42;;;;;;;22.35;20.05;;;;;;;13.63;100.00;99200.59;2105338;28;20229;-83
2021/06/10 00:48:43;;;;;;;24.60;20.23;;;;;;;13.58;100.00;99196.19;2104382;28;20221;-83
2021/06/10 00:49:44;;;;;;;22.27;19.57;;;;;;;13.53;100.00;99194.44;2105368;28;20221;-83
2021/06/10 00:50:46;;;;;;;21.40;19.40;;;;;;;13.54;100.00;99192.53;2104441;28;20225;-83
2021/06/10 00:51:47;;;;;;;23.92;20.58;;;;;;;13.42;100.00;99185.09;2105203;28;20282;-83
2021/06/10 00:52:48;;;;;;;22.63;20.40;;;;;;;13.50;100.00;99195.06;2105446;28;20221;-83
2021/06/10 00:53:49;;;;;;;22.87;20.67;;;;;;;13.46;100.00;99191.41;2096606;28;20225;-83
2021/06/10 00:54:50;;;;;;;22.58;20.38;;;;;;;13.49;100.00;99201.53;2088498;28;20581;-84
2021/06/10 00:55:53;;;;;;;24.40;20.50;;;;;;;13.45;100.00;99197.09;2104173;28;20366;-84
2021/06/10 00:56:53;;;;;;;24.33;21.30;;;;;;;13.42;100.00;99198.50;2105002;28;20273;-83
2021/06/10 00:57:55;;;;;;;28.23;21.43;;;;;;;13.44;100.00;99203.53;2104383;28;20266;-83
2021/06/10 00:58:56;;;;;;;22.58;20.38;;;;;;;13.45;100.00;99199.75;2104472;28;20611;-83
2021/06/10 00:59:57;;;;;;;25.53;20.97;;;;;;;13.36;100.00;99186.34;2105365;28;20221;-83
2021/06/10 01:00:58;;;;;;;28.27;20.00;;;;;;;13.38;100.00;99194.88;2105302;28;20244;-83
2021/06/10 01:02:01;;;;;;;23.60;21.17;;;;;;;13.40;100.00;99189.19;2097220;28;20301;-83
2021/06/10 01:03:02;;;;;;;24.38;21.33;;;;;;;13.42;100.00;99197.72;2096435;28;20224;-84
2021/06/10 01:04:04;;;;;;;24.98;22.23;;;;;;;13.42;100.00;99203.88;2101659;28;20288;-83
2021/06/10 01:05:06;;;;;;;24.20;21.60;;;;;;;13.35;100.00;99190.13;2096714;28;20237;-83
2021/06/10 01:06:14;;;;;;;25.42;20.88;;;;;;;13.34;100.00;99190.44;2104437;28;20213;-83
2021/06/10 01:07:21;;;;;;;28.02;22.45;;;;;;;13.37;100.00;99198.63;2104105;28;20648;-84
2021/06/10 01:08:27;;;;;;;25.05;21.55;;;;;;;13.38;100.00;99194.88;2104698;28;20229;-83
2021/06/10 01:09:40;;;;;;;26.77;22.33;;;;;;;13.36;100.00;99202.41;2103899;28;20237;-83
2021/06/10 01:10:47;;;;;;;30.67;21.73;;;;;;;13.31;100.00;99191.06;2097748;28;20226;-83
2021/06/10 01:11:54;;;;;;;30.60;22.17;;;;;;;13.30;100.00;99190.28;2096951;28;20214;-83
2021/06/10 01:13:00;;;;;;;25.33;21.90;;;;;;;13.32;100.00;99196.13;2105451;28;20228;-83
2021/06/10 01:14:09;;;;;;;28.15;22.38;;;;;;;13.37;100.00;99193.28;2112322;28;20325;-84
2021/06/10 01:15:12;;;;;;;26.00;22.63;;;;;;;13.34;100.00;99187.75;2101809;28;20221;-83
2021/06/10 01:16:16;;;;;;;29.08;22.00;;;;;;;13.38;100.00;99194.88;2104661;28;20304;-83
2021/06/10 01:17:19;;;;;;;28.02;22.52;;;;;;;13.34;100.00;99191.22;2096298;28;20308;-84
2021/06/10 01:18:21;;;;;;;26.30;22.40;;;;;;;13.35;100.00;99192.81;2096785;28;20305;-83
2021/06/10 01:19:32;;;;;;;25.42;21.75;;;;;;;13.33;100.00;99186.19;2096204;28;20222;-83
2021/06/10 01:20:33;;;;;;;30.42;23.05;;;;;;;13.33;100.00;99191.53;2104850;28;20225;-83
2021/06/10 01:21:37;;;;;;;26.00;22.45;;;;;;;13.30;100.00;99195.63;2096409;28;20332;-83
2021/06/10 01:22:40;;;;;;;29.42;21.90;;;;;;;13.27;100.00;99186.31;2087995;28;20231;-80
2021/06/10 01:24:01;;;;;;;26.73;22.30;;;;;;;13.29;100.00;99188.69;2096997;28;20308;-83
2021/06/10 01:25:12;;;;;;;31.42;22.90;;;;;;;13.23;100.00;99182.69;2089835;28;20230;-83
2021/06/10 01:26:24;;;;;;;25.95;22.00;;;;;;;13.23;100.00;99187.25;2091224;28;20234;-83
2021/06/10 01:27:28;;;;;;;30.30;21.63;;;;;;;13.19;100.00;99188.94;2088862;28;20361;-83
2021/06/10 01:28:33;;;;;;;25.95;22.50;;;;;;;13.15;100.00;99183.41;2096987;28;20244;-82
2021/06/10 01:29:34;;;;;;;27.52;22.52;;;;;;;13.16;100.00;99185.00;2103987;28;20213;-83
2021/06/10 01:30:38;;;;;;;28.80;22.48;;;;;;;13.18;100.00;99185.47;2096708;28;20217;-83
2021/06/10 01:31:39;;;;;;;24.25;21.70;;;;;;;13.15;100.00;99185.31;2096089;28;20229;-82
2021/06/10 01:32:45;;;;;;;28.38;23.23;;;;;;;13.13;100.00;99179.47;2087568;28;20222;-82
2021/06/10 01:33:48;;;;;;;30.13;22.38;;;;;;;13.15;100.00;99193.34;2097060;28;20264;-83
2021/06/10 01:34:50;;;;;;;26.90;22.10;;;;;;;13.15;100.00;99183.41;2096622;28;20229;-83
2021/06/10 01:35:54;;;;;;;25.50;22.80;;;;;;;13.15;100.00;99185.31;2095737;28;20226;-83
2021/06/10 01:36:56;;;;;;;28.88;21.83;;;;;;;13.10;100.00;99182.75;2105245;28;20249;-83
2021/06/10 01:37:58;;;;;;;28.75;22.40;;;;;;;13.03;100.00;99180.53;2104329;28;20341;-83
2021/06/10 01:39:03;;;;;;;25.33;22.58;;;;;;;12.99;100.00;99182.25;2096705;28;20218;-83
2021/06/10 01:40:05;;;;;;;29.92;23.08;;;;;;;13.02;100.00;99185.06;2104319;28;20257;-83
2021/06/10 01:41:07;;;;;;;27.63;22.20;;;;;;;13.00;100.00;99183.81;2104166;28;20230;-83
2021/06/10 01:42:10;;;;;;;29.10;22.48;;;;;;;12.98;100.00;99186.81;2089920;28;20226;-82
2021/06/10 01:43:14;;;;;;;27.80;22.13;;;;;;;12.90;100.00;99176.06;2097339;28;20672;-82
2021/06/10 01:44:15;;;;;;;25.58;21.65;;;;;;;12.92;100.00;99180.00;2104771;28;20217;-83
2021/06/10 01:45:19;;;;;;;25.70;21.85;;;;;;;12.89;100.00;99177.16;2102138;28;20742;-83
2021/06/10 01:46:22;;;;;;;34.42;23.25;;;;;;;12.87;100.00;99182.81;2105891;28;20221;-83
2021/06/10 01:47:24;;;;;;;34.78;22.80;;;;;;;12.86;100.00;99189.28;2101754;28;20236;-81
2021/06/10 01:48:25;;;;;;;26.05;23.10;;;;;;;12.83;100.00;99181.84;2105639;28;20229;-83
2021/06/10 01:49:26;;;;;;;26.63;22.95;;;;;;;12.80;100.00;99190.50;2106076;28;20233;-83
2021/06/10 01:50:28;;;;;;;24.95;22.02;;;;;;;12.79;100.00;99180.88;2091820;28;20231;-83
2021/06/10 01:51:30;;;;;;;28.85;22.58;;;;;;;12.77;100.00;99191.13;2097477;28;20233;-83
2021/06/10 01:52:32;;;;;;;28.00;22.42;;;;;;;12.76;100.00;99189.53;2095984;28;20253;-83
2021/06/10 01:53:37;;;;;;;27.05;23.23;;;;;;;12.73;100.00;99188.25;2105219;28;20274;-83
2021/06/10 01:54:38;;;;;;;28.05;22.45;;;;;;;12.72;100.00;99183.22;2099479;28;20222;-79
2021/06/10 01:55:40;;;;;;;26.08;22.17;;;;;;;12.66;100.00;99189.78;2097578;28;20238;-83
2021/06/10 01:56:41;;;;;;;26.58;22.73;;;;;;;12.68;100.00;99187.56;2104913;28;20267;-82
2021/06/10 01:57:43;;;;;;;26.30;22.27;;;;;;;12.64;100.00;99186.63;2099455;28;20226;-83
2021/06/10 01:58:46;;;;;;;29.20;22.35;;;;;;;12.67;100.00;99183.31;2097361;28;20309;-82
2021/06/10 01:59:48;;;;;;;29.20;22.17;;;;;;;12.64;100.00;99186.63;2104810;28;20308;-83
2021/06/10 02:00:50;;;;;;;26.05;21.75;;;;;;;12.64;100.00;99178.59;2106316;28;20227;-82
2021/06/10 02:01:52;;;;;;;26.08;21.88;;;;;;;12.65;100.00;99186.31;2089377;28;20293;-82
2021/06/10 02:02:54;;;;;;;27.77;21.63;;;;;;;12.59;100.00;99176.03;2114295;28;20208;-82
2021/06/10 02:03:57;;;;;;;25.35;21.27;;;;;;;12.64;100.00;99191.97;2113832;28;20705;-82
2021/06/10 02:04:58;;;;;;;28.65;21.85;;;;;;;12.60;100.00;99191.81;2103676;28;20229;-82
2021/06/10 02:06:01;;;;;;;26.43;22.93;;;;;;;12.53;100.00;99180.75;2106283;28;20225;-82
2021/06/10 02:07:02;;;;;;;26.20;23.00;;;;;;;12.62;100.00;99199.53;2105682;28;20229;-82
2021/06/10 02:08:04;;;;;;;26.63;22.10;;;;;;;12.61;100.00;99195.28;2098137;28;20305;-83
2021/06/10 02:09:05;;;;;;;25.13;22.52;;;;;;;12.55;100.00;99186.56;2105338;28;20222;-82
2021/06/10 02:10:09;;;;;;;30.15;23.13;;;;;;;12.62;100.00;99196.84;2105776;28;20222;-82
2021/06/10 02:11:10;;;;;;;27.75;22.88;;;;;;;12.57;100.00;99195.09;2104152;28;20304;-82
2021/06/10 02:12:12;;;;;;;25.73;22.67;;;;;;;12.52;100.00;99184.53;2105454;28;20225;-82
2021/06/10 02:13:13;;;;;;;26.30;22.52;;;;;;;12.52;100.00;99191.75;2106321;28;20233;-82
2021/06/10 02:14:18;;;;;;;30.57;23.53;;;;;;;12.48;100.00;99191.56;2105718;28;20254;-83
2021/06/10 02:15:20;;;;;;;35.75;23.48;;;;;;;12.42;100.00;99193.59;2097647;28;20221;-83
2021/06/10 02:16:22;;;;;;;34.40;23.42;;;;;;;12.39;100.00;99186.16;2106738;28;20671;-83
2021/06/10 02:17:23;;;;;;;31.92;23.45;;;;;;;12.47;100.00;99197.22;2107185;28;20683;-81
2021/06/10 02:18:24;;;;;;;28.67;23.10;;;;;;;12.34;100.00;99188.19;2097972;28;20657;-83
2021/06/10 02:19:25;;;;;;;28.67;22.65;;;;;;;12.42;100.00;99198.94;2103648;28;20582;-82
2021/06/10 02:20:26;;;;;;;29.93;23.53;;;;;;;12.44;100.00;99202.09;2105635;28;20310;-82
2021/06/10 02:21:27;;;;;;;29.73;23.88;;;;;;;12.43;100.00;99200.50;2106026;28;20686;-82
2021/06/10 02:22:28;;;;;;;28.90;23.53;;;;;;;12.39;100.00;99196.84;2105724;28;20553;-82
2021/06/10 02:23:29;;;;;;;25.48;22.73;;;;;;;12.39;100.00;99204.88;2105747;28;20225;-83
2021/06/10 02:24:31;;;;;;;33.78;23.85;;;;;;;12.36;100.00;99194.78;2106271;28;20304;-82
2021/06/10 02:25:32;;;;;;;26.33;23.65;;;;;;;12.30;100.00;99179.16;2105705;28;20626;-82
2021/06/10 02:26:33;;;;;;;26.03;23.33;;;;;;;12.36;100.00;99204.72;2106622;28;20655;-82
2021/06/10 02:27:34;;;;;;;29.58;23.77;;;;;;;12.32;100.00;99193.00;2105582;28;20294;-83
2021/06/10 02:28:36;;;;;;;31.43;25.27;;;;;;;12.33;100.00;99200.72;2106351;28;20304;-82
2021/06/10 02:29:40;;;;;;;29.40;24.20;;;;;;;12.28;100.00;99194.72;2106746;28;20233;-83
2021/06/10 02:30:41;;;;;;;31.98;24.73;;;;;;;12.32;100.00;99204.50;2105037;28;20225;-83
2021/06/10 02:31:42;;;;;;;28.80;24.08;;;;;;;12.31;100.00;99204.81;2106060;28;20226;-82
2021/06/10 02:32:43;;;;;;;27.53;23.47;;;;;;;12.27;100.00;99201.19;2098038;28;20637;-82
2021/06/10 02:33:45;;;;;;;27.23;24.30;;;;;;;12.28;100.00;99208.91;2105713;28;20225;-82
2021/06/10 02:34:46;;;;;;;29.08;24.75;;;;;;;12.26;100.00;99203.06;2106090;28;20221;-82
2021/06/10 02:35:47;;;;;;;32.25;24.95;;;;;;;12.28;100.00;99203.53;2104710;28;20680;-82
2021/06/10 02:36:48;;;;;;;29.80;24.37;;;;;;;12.22;100.00;99195.94;2106020;28;20578;-82
2021/06/10 02:37:51;;;;;;;31.13;24.75;;;;;;;12.28;100.00;99197.41;2097301;28;20240;-82
2021/06/10 02:38:54;;;;;;;30.75;25.80;;;;;;;12.34;100.00;99207.69;2105250;28;20228;-83
2021/06/10 02:39:56;;;;;;;29.17;24.30;;;;;;;12.35;100.00;99208.47;2106360;28;20226;-83
2021/06/10 02:40:59;;;;;;;26.98;23.92;;;;;;;12.31;100.00;99199.47;2105423;28;20650;-82
2021/06/10 02:42:01;;;;;;;27.30;24.40;;;;;;;12.28;100.00;99211.56;2105998;28;20309;-83
2021/06/10 02:43:04;;;;;;;27.20;24.25;;;;;;;12.29;100.00;99207.81;2105442;28;20226;-82
2021/06/10 02:44:07;;;;;;;32.25;25.48;;;;;;;12.25;100.00;99204.16;2097225;28;20245;-83
2021/06/10 02:45:11;;;;;;;42.17;25.70;;;;;;;12.25;100.00;99206.84;2093568;28;20309;-82
2021/06/10 02:46:15;;;;;;;35.92;25.83;;;;;;;12.27;100.00;99206.53;2105134;28;20221;-83
2021/06/10 02:47:16;;;;;;;32.90;24.92;;;;;;;12.30;100.00;99208.59;2114623;28;20224;-82
2021/06/10 02:48:18;;;;;;;29.15;25.00;;;;;;;12.22;100.00;99199.41;2113845;28;20374;-82
2021/06/10 02:49:19;;;;;;;28.58;25.35;;;;;;;12.30;100.00;99213.94;2105807;28;20349;-82
2021/06/10 02:50:21;;;;;;;30.88;24.88;;;;;;;12.29;100.00;99213.16;2097945;28;20309;-83
2021/06/10 02:51:22;;;;;;;30.88;25.02;;;;;;;12.25;100.00;99203.34;2088845;28;20226;-83
2021/06/10 02:52:24;;;;;;;33.22;24.75;;;;;;;12.38;100.00;99213.22;2103037;28;20229;-82
2021/06/10 02:53:28;;;;;;;28.45;24.50;;;;;;;12.40;100.00;99216.38;2105375;28;20225;-82
2021/06/10 02:54:29;;;;;;;28.85;25.38;;;;;;;12.40;100.00;99213.69;2105512;28;20225;-82
2021/06/10 02:55:30;;;;;;;27.92;25.10;;;;;;;12.36;100.00;99202.03;2106645;28;20221;-83
2021/06/10 02:56:32;;;;;;;29.23;24.90;;;;;;;12.42;100.00;99217.66;2105214;28;20220;-83
2021/06/10 02:57:33;;;;;;;29.27;25.13;;;;;;;12.44;100.00;99209.34;2096756;28;20591;-83
2021/06/10 02:58:39;;;;;;;32.63;24.88;;;;;;;12.45;100.00;99217.06;2106047;28;20218;-83
2021/06/10 02:59:42;;;;;;;32.13;25.00;;;;;;;12.48;100.00;99212.19;2105697;28;20225;-83
2021/06/10 03:00:45;;;;;;;28.45;23.17;;;;;;;12.47;100.00;99205.25;2106070;28;20229;-82
2021/06/10 03:01:46;;;;;;;38.60;25.85;;;;;;;12.53;100.00;99212.84;2105382;28;20224;-83
2021/06/10 03:02:49;;;;;;;31.02;25.00;;;;;;;12.50;100.00;99209.97;2105187;28;20671;-83
2021/06/10 03:03:51;;;;;;;28.48;25.00;;;;;;;12.53;100.00;99214.75;2097649;28;20327;-83
2021/06/10 03:04:52;;;;;;;30.13;24.13;;;;;;;12.54;100.00;99214.44;2097056;28;20218;-83
2021/06/10 03:05:56;;;;;;;26.60;23.70;;;;;;;12.50;100.00;99209.97;2101580;28;20316;-81
2021/06/10 03:06:59;;;;;;;27.27;24.13;;;;;;;12.55;100.00;99217.91;2105805;28;20217;-83
2021/06/10 03:07:59;;;;;;;29.35;25.30;;;;;;;12.54;100.00;99216.31;2105911;28;20559;-83
2021/06/10 03:09:01;;;;;;;29.73;24.20;;;;;;;12.56;100.00;99214.91;2106668;28;20225;-82
2021/06/10 03:10:03;;;;;;;27.52;24.58;;;;;;;12.57;100.00;99215.69;2105995;28;20694;-83
2021/06/10 03:11:06;;;;;;;32.33;24.65;;;;;;;12.60;100.00;99209.75;2106729;28;20282;-83
2021/06/10 03:12:09;;;;;;;27.80;24.40;;;;;;;12.57;100.00;99207.69;2105329;28;20562;-83
2021/06/10 03:13:12;;;;;;;28.27;25.00;;;;;;;12.62;100.00;99218.28;2102836;28;20225;-83
2021/06/10 03:14:13;;;;;;;28.40;25.08;;;;;;;12.61;100.00;99217.47;2106565;28;20248;-82
2021/06/10 03:15:15;;;;;;;28.17;24.92;;;;;;;12.62;100.00;99213.69;2097827;28;20225;-83
2021/06/10 03:16:18;;;;;;;34.13;25.85;;;;;;;12.65;100.00;99221.13;2097483;28;20232;-83
2021/06/10 03:17:19;;;;;;;28.52;24.88;;;;;;;12.61;100.00;99222.03;2102601;28;20607;-83
2021/06/10 03:18:20;;;;;;;27.65;24.73;;;;;;;12.69;100.00;99224.00;2096906;28;20637;-83
2021/06/10 03:19:21;;;;;;;31.55;23.70;;;;;;;12.72;100.00;99229.50;2106003;28;20683;-83
2021/06/10 03:20:23;;;;;;;31.48;24.92;;;;;;;12.73;100.00;99217.69;2103817;28;20628;-83
2021/06/10 03:21:24;;;;;;;30.10;25.08;;;;;;;12.71;100.00;99221.78;2106101;28;20232;-83
2021/06/10 03:22:25;;;;;;;26.73;23.80;;;;;;;12.70;100.00;99225.56;2105791;28;20252;-82
2021/06/10 03:23:26;;;;;;;31.30;25.33;;;;;;;12.75;100.00;99222.75;2105900;28;20228;-83
2021/06/10 03:24:27;;;;;;;31.30;25.37;;;;;;;12.79;100.00;99223.72;2105554;28;20252;-83
2021/06/10 03:25:29;;;;;;;31.38;25.52;;;;;;;12.81;100.00;99231.44;2105042;28;20798;-83
2021/06/10 03:26:33;;;;;;;31.38;25.95;;;;;;;12.81;100.00;99226.88;2105277;28;20225;-83
2021/06/10 03:27:34;;;;;;;35.22;25.10;;;;;;;12.83;100.00;99224.69;2105722;28;20217;-83
2021/06/10 03:28:36;;;;;;;28.30;24.60;;;;;;;12.91;100.00;99231.97;2105008;28;20225;-83
2021/06/10 03:29:37;;;;;;;30.42;26.05;;;;;;;12.91;100.00;99231.97;2097721;28;20218;-83
2021/06/10 03:30:38;;;;;;;28.27;24.83;;;;;;;12.96;100.00;99233.75;2104718;28;20224;-80
2021/06/10 03:31:41;;;;;;;27.30;24.52;;;;;;;12.93;100.00;99229.78;2104958;28;20232;-82
2021/06/10 03:32:43;;;;;;;30.58;25.63;;;;;;;12.85;100.00;99224.38;2097380;28;20704;-83
2021/06/10 03:33:44;;;;;;;29.95;24.40;;;;;;;12.91;100.00;99231.19;2104937;28;20703;-82
2021/06/10 03:34:45;;;;;;;28.23;24.75;;;;;;;12.92;100.00;99230.88;2105914;28;20570;-82
2021/06/10 03:35:46;;;;;;;28.92;24.85;;;;;;;12.95;100.00;99235.63;2105604;28;20706;-83
2021/06/10 03:36:48;;;;;;;30.58;24.10;;;;;;;12.96;100.00;99228.41;2097782;28;20845;-83
2021/06/10 03:37:49;;;;;;;29.10;24.45;;;;;;;12.99;100.00;99238.47;2105623;28;20231;-83
2021/06/10 03:38:51;;;;;;;30.17;23.73;;;;;;;12.97;100.00;99229.97;2113698;28;20224;-83
2021/06/10 03:39:52;;;;;;;30.90;25.25;;;;;;;12.99;100.00;99231.25;2114872;28;20217;-83
2021/06/10 03:40:55;;;;;;;35.03;24.80;;;;;;;13.00;100.00;99234.69;2106330;28;20232;-82
2021/06/10 03:41:56;;;;;;;31.10;24.48;;;;;;;12.97;100.00;99224.63;2101391;28;20225;-83
2021/06/10 03:42:58;;;;;;;26.50;23.80;;;;;;;13.01;100.00;99237.06;2105623;28;20233;-82
2021/06/10 03:43:59;;;;;;;30.95;24.70;;;;;;;13.06;100.00;99232.69;2104849;28;20221;-82
2021/06/10 03:45:00;;;;;;;32.13;25.23;;;;;;;13.05;100.00;99239.16;2098000;28;20275;-83
2021/06/10 03:46:04;;;;;;;33.10;24.25;;;;;;;13.03;100.00;99228.75;2096825;28;20226;-82
2021/06/10 03:47:07;;;;;;;26.52;23.75;;;;;;;13.04;100.00;99235.69;2106015;28;20300;-83
2021/06/10 03:48:10;;;;;;;31.95;24.77;;;;;;;13.01;100.00;99231.72;2105779;28;20233;-82
2021/06/10 03:49:11;;;;;;;26.80;24.15;;;;;;;13.05;100.00;99239.16;2096497;28;20680;-82
2021/06/10 03:50:13;;;;;;;30.52;25.42;;;;;;;13.04;100.00;99240.25;2114528;28;20705;-82
2021/06/10 03:51:17;;;;;;;27.98;25.08;;;;;;;13.06;100.00;99235.38;2122416;27;20724;-82
2021/06/10 03:52:21;;;;;;;28.70;24.17;;;;;;;13.08;100.00;99233.16;2103138;28;20297;-82
2021/06/10 03:53:23;;;;;;;32.88;25.13;;;;;;;13.06;100.00;99236.16;2095460;28;20613;-82
2021/06/10 03:54:23;;;;;;;29.15;24.45;;;;;;;12.99;100.00;99222.41;2095958;28;20232;-81
2021/06/10 03:55:25;;;;;;;30.77;24.27;;;;;;;13.06;100.00;99232.69;2104988;28;20719;-83
2021/06/10 03:56:25;;;;;;;28.10;24.73;;;;;;;12.99;100.00;99228.56;2105573;28;20224;-82
2021/06/10 03:57:27;;;;;;;32.93;25.60;;;;;;;12.97;100.00;99224.63;2097062;28;20754;-82
2021/06/10 03:58:28;;;;;;;26.88;24.08;;;;;;;13.05;100.00;99233.78;2105453;28;20232;-80
2021/06/10 03:59:29;;;;;;;30.43;24.67;;;;;;;12.97;100.00;99224.63;2113553;28;20225;-82
2021/06/10 04:00:30;;;;;;;29.13;24.83;;;;;;;13.08;100.00;99230.50;2106122;28;20222;-82
2021/06/10 04:01:31;;;;;;;30.00;25.63;;;;;;;13.09;100.00;99242.78;2106274;28;20241;-82
2021/06/10 04:02:33;;;;;;;33.10;25.02;;;;;;;13.09;100.00;99232.06;2097562;28;20237;-83
2021/06/10 04:03:34;;;;;;;31.48;24.33;;;;;;;13.11;100.00;99233.34;2096969;28;20751;-83
2021/06/10 04:04:35;;;;;;;29.30;23.92;;;;;;;13.12;100.00;99232.25;2100060;28;20226;-83
2021/06/10 04:05:36;;;;;;;31.83;24.20;;;;;;;13.16;100.00;99240.47;2104858;28;20221;-83
2021/06/10 04:06:38;;;;;;;30.40;25.55;;;;;;;13.12;100.00;99226.91;2105288;28;20217;-83
2021/06/10 04:07:39;;;;;;;27.05;24.27;;;;;;;13.18;100.00;99232.91;2102329;28;20242;-83
2021/06/10 04:08:40;;;;;;;30.35;24.55;;;;;;;13.19;100.00;99226.44;2104745;28;20227;-79
2021/06/10 04:09:41;;;;;;;29.43;24.83;;;;;;;13.15;100.00;99225.50;2104686;28;20221;-83
2021/06/10 04:10:42;;;;;;;28.83;24.48;;;;;;;13.17;100.00;99226.75;2096349;28;20240;-83
2021/06/10 04:11:43;;;;;;;27.90;23.80;;;;;;;13.15;100.00;99222.81;2096887;28;20225;-82
2021/06/10 04:12:44;;;;;;;29.08;23.80;;;;;;;13.22;100.00;99231.22;2104788;28;20212;-82
2021/06/10 04:13:45;;;;;;;28.43;24.13;;;;;;;13.25;100.00;99226.03;2097307;28;20225;-82
2021/06/10 04:14:46;;;;;;;28.00;25.13;;;;;;;13.23;100.00;99230.13;2096833;28;20222;-83
2021/06/10 04:15:47;;;;;;;27.97;23.50;;;;;;;13.25;100.00;99230.59;2103777;28;20245;-83
2021/06/10 04:16:48;;;;;;;30.30;24.95;;;;;;;13.28;100.00;99235.34;2105625;28;20690;-82
2021/06/10 04:17:50;;;;;;;30.40;24.87;;;;;;;13.23;100.00;99222.88;2104404;28;20596;-82
2021/06/10 04:18:52;;;;;;;27.92;24.10;;;;;;;13.25;100.00;99235.97;2104684;28;20217;-83
2021/06/10 04:19:53;;;;;;;28.00;25.00;;;;;;;13.28;100.00;99236.13;2102043;28;20217;-81
2021/06/10 04:20:54;;;;;;;29.33;25.05;;;;;;;13.28;100.00;99230.75;2102380;28;20664;-82
2021/06/10 04:21:55;;;;;;;29.07;25.10;;;;;;;13.29;100.00;99231.53;2105435;28;20659;-82
2021/06/10 04:22:56;;;;;;;32.55;26.27;;;;;;;13.32;100.00;99230.16;2113080;28;20231;-82
2021/06/10 04:23:57;;;;;;;30.47;24.93;;;;;;;13.35;100.00;99241.03;2113108;28;20307;-82
2021/06/10 04:24:58;;;;;;;31.80;24.08;;;;;;;13.34;100.00;99227.94;2106177;28;20236;-82
2021/06/10 04:26:00;;;;;;;31.90;25.57;;;;;;;13.40;100.00;99232.09;2104546;28;20229;-83
2021/06/10 04:27:01;;;;;;;29.17;24.55;;;;;;;13.38;100.00;99235.09;2104517;28;20309;-83
2021/06/10 04:28:02;;;;;;;29.60;24.73;;;;;;;13.38;100.00;99224.38;2105220;28;20679;-83
2021/06/10 04:29:03;;;;;;;29.88;25.63;;;;;;;13.40;100.00;99232.88;2104594;28;20221;-82
2021/06/10 04:30:05;;;;;;;31.60;26.00;;;;;;;13.43;100.00;99232.25;2105349;28;20228;-83
2021/06/10 04:31:06;;;;;;;28.77;25.48;;;;;;;13.45;100.00;99224.69;2104764;28;20275;-83
2021/06/10 04:32:08;;;;;;;29.57;26.47;;;;;;;13.47;100.00;99238.59;2105413;28;20270;-82
2021/06/10 04:33:10;;;;;;;34.33;25.83;;;;;;;13.50;100.00;99239.84;2104425;28;20235;-81
2021/06/10 04:34:12;;;;;;;35.25;27.23;;;;;;;13.42;100.00;99230.66;2112959;28;20312;-83
2021/06/10 04:35:13;;;;;;;35.08;25.30;;;;;;;13.51;100.00;99233.38;2114807;28;20264;-82
2021/06/10 04:36:15;;;;;;;28.20;25.33;;;;;;;13.55;100.00;99232.47;2101304;28;20245;-83
2021/06/10 04:37:18;;;;;;;33.33;25.27;;;;;;;13.60;100.00;99236.09;2096326;28;20657;-82
2021/06/10 04:38:19;;;;;;;28.73;25.77;;;;;;;13.55;100.00;99240.50;2105374;28;20578;-83
2021/06/10 04:39:20;;;;;;;28.80;25.65;;;;;;;13.61;100.00;99237.66;2105249;28;20245;-83
2021/06/10 04:40:21;;;;;;;28.90;24.57;;;;;;;13.64;100.00;99231.66;2096899;28;20222;-82
2021/06/10 04:41:22;;;;;;;27.67;24.65;;;;;;;13.67;100.00;99234.53;2096449;28;20712;-83
2021/06/10 04:42:23;;;;;;;27.23;24.53;;;;;;;13.71;100.00;99242.72;2102055;28;20586;-80